createdAt,value
2023-03-03T00:01:20.474Z,102693.72
2023-03-03T00:03:47.111Z,102700.03
2023-03-03T00:06:14.801Z,102700.97
2023-03-03T00:08:42.534Z,102707.09
2023-03-03T00:11:10.004Z,102702.75
2023-03-03T00:13:57.212Z,102704.34
2023-03-03T00:16:35.607Z,102697.09
2023-03-03T00:19:02.418Z,102693.72
2023-03-03T00:21:40.476Z,102700.78
2023-03-03T00:24:24.269Z,102704.44
2023-03-03T00:26:58.179Z,102702.31
2023-03-03T00:29:29.556Z,102706.16
2023-03-03T00:32:10.725Z,102708.38
2023-03-03T00:34:37.483Z,102718.50
2023-03-03T00:37:04.698Z,102714.78
2023-03-03T00:39:35.675Z,102713.19
2023-03-03T00:42:05.562Z,102717.34
2023-03-03T00:44:32.028Z,102717.34
2023-03-03T00:47:12.915Z,102725.06
2023-03-03T00:49:39.696Z,102713.81
2023-03-03T00:52:17.705Z,102718.34
2023-03-03T00:54:44.907Z,102706.13
2023-03-03T00:57:14.872Z,102726.69
2023-03-03T00:59:41.770Z,102721.53
2023-03-03T01:02:08.497Z,102721.69
2023-03-03T01:04:35.260Z,102719.94
2023-03-03T01:07:04.545Z,102721.53
2023-03-03T01:09:31.220Z,102726.31
2023-03-03T01:11:58.055Z,102722.81
2023-03-03T01:14:24.654Z,102731.47
2023-03-03T01:16:52.468Z,102727.31
2023-03-03T01:19:19.315Z,102730.84
2023-03-03T01:21:45.991Z,102727.13
2023-03-03T01:24:12.679Z,102723.44
2023-03-03T01:26:39.374Z,102722.44
2023-03-03T01:29:06.098Z,102727.25
2023-03-03T01:31:33.272Z,102718.56
2023-03-03T01:34:00.279Z,102721.13
2023-03-03T01:36:28.440Z,102723.22
2023-03-03T01:38:55.081Z,102717.31
2023-03-03T01:41:21.946Z,102720.50
2023-03-03T01:43:50.537Z,102731.78
2023-03-03T01:46:45.270Z,102734.34
2023-03-03T01:49:23.048Z,102727.59
2023-03-03T01:51:59.506Z,102727.59
2023-03-03T01:54:43.957Z,102723.44
2023-03-03T01:57:21.856Z,102730.31
2023-03-03T01:59:51.159Z,102730.78
2023-03-03T02:02:18.974Z,102725.66
2023-03-03T02:04:46.169Z,102730.78
2023-03-03T02:07:15.228Z,102727.25
2023-03-03T02:09:59.781Z,102731.41
2023-03-03T02:12:34.276Z,102727.69
2023-03-03T02:15:00.904Z,102732.03
2023-03-03T02:17:27.795Z,102736.03
2023-03-03T02:20:07.162Z,102727.69
2023-03-03T02:22:57.560Z,102725.94
2023-03-03T02:25:36.836Z,102724.34
2023-03-03T02:28:03.687Z,102718.56
2023-03-03T02:30:30.441Z,102733.03
2023-03-03T02:32:57.054Z,102729.19
2023-03-03T02:35:29.778Z,102728.38
2023-03-03T02:38:09.847Z,102735.31
2023-03-03T02:40:40.579Z,102723.75
2023-03-03T02:43:09.378Z,102722.16
2023-03-03T02:45:42.646Z,102725.75
2023-03-03T02:48:09.201Z,102723.69
2023-03-03T02:50:35.736Z,102722.25
2023-03-03T02:53:05.254Z,102722.25
2023-03-03T02:55:32.182Z,102727.38
2023-03-03T02:57:58.930Z,102729.16
2023-03-03T03:00:25.507Z,102727.75
2023-03-03T03:02:52.304Z,102733.03
2023-03-03T03:05:18.888Z,102728.69
2023-03-03T03:07:45.515Z,102729.03
2023-03-03T03:10:12.010Z,102725.84
2023-03-03T03:12:38.617Z,102736.13
2023-03-03T03:15:05.886Z,102734.50
2023-03-03T03:17:32.596Z,102736.13
2023-03-03T03:19:59.275Z,102729.38
2023-03-03T03:22:26.204Z,102723.09
2023-03-03T03:24:53.180Z,102728.06
2023-03-03T03:27:20.162Z,102728.06
2023-03-03T03:29:47.012Z,102728.69
2023-03-03T03:32:13.688Z,102725.16
2023-03-03T03:34:43.247Z,102726.75
2023-03-03T03:37:09.985Z,102734.13
2023-03-03T03:39:36.927Z,102728.38
2023-03-03T03:42:03.660Z,102733.16
2023-03-03T03:44:30.479Z,102733.97
2023-03-03T03:46:57.060Z,102738.94
2023-03-03T03:49:23.690Z,102740.72
2023-03-03T03:51:50.419Z,102739.59
2023-03-03T03:54:16.971Z,102741.81
2023-03-03T03:56:43.618Z,102741.81
2023-03-03T03:59:10.341Z,102746.78
2023-03-03T04:01:38.295Z,102745.66
2023-03-03T04:04:05.211Z,102749.63
2023-03-03T04:06:32.546Z,102748.84
2023-03-03T04:08:59.080Z,102757.81
2023-03-03T04:11:25.690Z,102750.91
2023-03-03T04:13:52.214Z,102748.53
2023-03-03T04:16:18.843Z,102748.31
2023-03-03T04:18:46.909Z,102751.72
2023-03-03T04:21:15.420Z,102744.81
2023-03-03T04:23:42.557Z,102747.84
2023-03-03T04:26:10.582Z,102754.72
2023-03-03T04:28:38.501Z,102753.31
2023-03-03T04:31:05.442Z,102755.25
2023-03-03T04:33:32.128Z,102744.16
2023-03-03T04:35:58.756Z,102740.97
2023-03-03T04:38:26.378Z,102744.97
2023-03-03T04:40:53.309Z,102750.72
2023-03-03T04:43:20.464Z,102751.72
2023-03-03T04:45:47.265Z,102751.38
2023-03-03T04:48:14.039Z,102756.34
2023-03-03T04:50:42.633Z,102758.56
2023-03-03T04:53:09.727Z,102763.91
2023-03-03T04:55:38.793Z,102758.13
2023-03-03T04:58:06.155Z,102758.56
2023-03-03T05:00:33.060Z,102757.94
2023-03-03T05:03:00.115Z,102759.19
2023-03-03T05:05:26.816Z,102761.75
2023-03-03T05:07:53.604Z,102748.75
2023-03-03T05:10:20.998Z,102747.00
2023-03-03T05:12:47.689Z,102742.81
2023-03-03T05:15:14.274Z,102739.59
2023-03-03T05:17:41.383Z,102743.59
2023-03-03T05:20:10.040Z,102747.63
2023-03-03T05:22:36.625Z,102747.78
2023-03-03T05:25:03.570Z,102756.47
2023-03-03T05:27:30.160Z,102744.41
2023-03-03T05:29:56.869Z,102752.28
2023-03-03T05:32:23.716Z,102747.78
2023-03-03T05:34:52.948Z,102749.22
2023-03-03T05:37:19.521Z,102745.84
2023-03-03T05:39:46.107Z,102750.00
2023-03-03T05:42:16.029Z,102746.63
2023-03-03T05:44:42.599Z,102751.63
2023-03-03T05:47:09.871Z,102746.09
2023-03-03T05:49:36.561Z,102748.69
2023-03-03T05:52:05.655Z,102747.56
2023-03-03T05:54:32.719Z,102747.38
2023-03-03T05:56:59.398Z,102750.75
2023-03-03T05:59:26.076Z,102755.72
2023-03-03T06:01:52.744Z,102760.69
2023-03-03T06:04:19.408Z,102755.56
2023-03-03T06:06:46.035Z,102759.91
2023-03-03T06:09:12.838Z,102761.31
2023-03-03T06:11:39.830Z,102759.53
2023-03-03T06:14:06.466Z,102763.91
2023-03-03T06:16:33.027Z,102763.09
2023-03-03T06:18:59.856Z,102771.63
2023-03-03T06:21:27.022Z,102772.41
2023-03-03T06:23:53.656Z,102769.69
2023-03-03T06:26:20.416Z,102771.09
2023-03-03T06:28:47.050Z,102771.09
2023-03-03T06:31:13.963Z,102773.34
2023-03-03T06:33:43.890Z,102778.31
2023-03-03T06:36:13.432Z,102772.19
2023-03-03T06:38:40.025Z,102778.16
2023-03-03T06:41:08.551Z,102787.31
2023-03-03T06:43:35.689Z,102786.50
2023-03-03T06:46:03.529Z,102788.09
2023-03-03T06:48:31.682Z,102784.56
2023-03-03T06:51:00.567Z,102791.13
2023-03-03T06:53:27.718Z,102792.56
2023-03-03T06:55:56.967Z,102794.78
2023-03-03T06:58:27.650Z,102800.56
2023-03-03T07:00:57.762Z,102798.63
2023-03-03T07:03:28.505Z,102803.41
2023-03-03T07:05:55.870Z,102803.09
2023-03-03T07:08:25.018Z,102811.44
2023-03-03T07:10:52.873Z,102814.63
2023-03-03T07:13:24.688Z,102808.34
2023-03-03T07:15:53.991Z,102820.69
2023-03-03T07:18:29.991Z,102822.75
2023-03-03T07:20:56.833Z,102823.56
2023-03-03T07:23:42.764Z,102822.56
2023-03-03T07:26:13.654Z,102830.75
2023-03-03T07:28:46.130Z,102826.69
2023-03-03T07:31:39.204Z,102828.72
2023-03-03T07:34:17.001Z,102822.44
2023-03-03T07:36:43.897Z,102833.00
2023-03-03T07:39:37.212Z,102836.50
2023-03-03T07:42:27.910Z,102840.97
2023-03-03T07:44:57.823Z,102843.69
2023-03-03T07:47:27.186Z,102844.50
2023-03-03T07:49:58.517Z,102851.88
2023-03-03T07:53:00.734Z,102845.56
2023-03-03T07:55:34.224Z,102842.91
2023-03-03T07:58:15.037Z,102853.31
2023-03-03T08:01:19.729Z,102858.41
2023-03-03T08:03:51.155Z,102852.97
2023-03-03T08:06:44.489Z,102848.88
2023-03-03T08:09:11.012Z,102858.03
2023-03-03T08:12:19.902Z,102868.81
2023-03-03T08:14:47.266Z,102868.63
2023-03-03T08:17:23.707Z,102869.72
2023-03-03T08:19:55.392Z,102879.31
2023-03-03T08:22:33.321Z,102881.91
2023-03-03T08:24:59.836Z,102885.53
2023-03-03T08:27:26.550Z,102881.44
2023-03-03T08:29:55.634Z,102884.91
2023-03-03T08:32:27.240Z,102886.53
2023-03-03T08:34:53.886Z,102889.97
2023-03-03T08:37:20.409Z,102891.72
2023-03-03T08:39:47.014Z,102888.16
2023-03-03T08:42:16.105Z,102886.03
2023-03-03T08:44:43.273Z,102889.66
2023-03-03T08:47:09.847Z,102881.56
2023-03-03T08:49:40.583Z,102879.66
2023-03-03T08:52:07.217Z,102888.91
2023-03-03T08:54:33.948Z,102889.81
2023-03-03T08:57:00.824Z,102888.47
2023-03-03T08:59:27.417Z,102888.72
2023-03-03T09:01:54.093Z,102891.56
2023-03-03T09:04:20.686Z,102891.66
2023-03-03T09:06:47.507Z,102888.56
2023-03-03T09:09:14.122Z,102885.03
2023-03-03T09:11:44.469Z,102884.28
2023-03-03T09:14:16.597Z,102890.69
2023-03-03T09:16:52.198Z,102890.31
2023-03-03T09:19:29.433Z,102890.53
2023-03-03T09:21:59.567Z,102882.81
2023-03-03T09:24:31.541Z,102884.44
2023-03-03T09:26:59.108Z,102887.16
2023-03-03T09:29:31.025Z,102882.25
2023-03-03T09:32:01.223Z,102885.09
2023-03-03T09:34:36.972Z,102885.56
2023-03-03T09:37:44.321Z,102881.84
2023-03-03T09:40:46.143Z,102889.63
2023-03-03T09:43:15.234Z,102890.66
2023-03-03T09:46:01.450Z,102894.63
2023-03-03T09:48:51.072Z,102893.06
2023-03-03T09:51:59.169Z,102893.47
2023-03-03T09:54:51.653Z,102893.25
2023-03-03T09:57:25.943Z,102907.03
2023-03-03T10:00:10.239Z,102900.06
2023-03-03T10:02:47.690Z,102896.91
2023-03-03T10:05:21.722Z,102894.72
2023-03-03T10:08:26.082Z,102893.34
2023-03-03T10:11:20.445Z,102902.13
2023-03-03T10:13:56.121Z,102894.94
2023-03-03T10:16:47.812Z,102894.94
2023-03-03T10:19:34.434Z,102898.16
2023-03-03T10:22:16.554Z,102896.97
2023-03-03T10:25:04.868Z,102894.16
2023-03-03T10:28:11.291Z,102902.31
2023-03-03T10:30:51.210Z,102892.16
2023-03-03T10:34:00.731Z,102896.53
2023-03-03T10:36:35.183Z,102896.88
2023-03-03T10:39:20.092Z,102902.47
2023-03-03T10:41:55.743Z,102899.22
2023-03-03T10:44:37.477Z,102894.25
2023-03-03T10:47:30.196Z,102902.00
2023-03-03T10:50:04.875Z,102887.59
2023-03-03T10:52:34.054Z,102891.31
2023-03-03T10:55:20.977Z,102897.63
2023-03-03T10:58:29.359Z,102893.38
2023-03-03T11:01:11.716Z,102898.38
2023-03-03T11:03:56.984Z,102886.81
2023-03-03T11:06:45.614Z,102889.84
2023-03-03T11:09:54.458Z,102888.22
2023-03-03T11:12:22.643Z,102889.69
2023-03-03T11:15:39.795Z,102886.19
2023-03-03T11:18:59.836Z,102882.44
2023-03-03T11:22:02.356Z,102879.16
2023-03-03T11:24:40.284Z,102880.97
2023-03-03T11:27:18.135Z,102872.84
2023-03-03T11:29:56.884Z,102874.59
2023-03-03T11:32:45.991Z,102866.84
2023-03-03T11:35:35.979Z,102868.69
2023-03-03T11:38:24.238Z,102865.22
2023-03-03T11:40:57.309Z,102860.41
2023-03-03T11:43:37.853Z,102864.28
2023-03-03T11:46:15.374Z,102856.84
2023-03-03T11:49:03.145Z,102858.69
2023-03-03T11:51:53.200Z,102861.38
2023-03-03T11:54:29.344Z,102859.94
2023-03-03T11:57:13.711Z,102866.06
2023-03-03T11:59:49.967Z,102862.41
2023-03-03T12:02:45.074Z,102855.81
2023-03-03T12:05:27.218Z,102853.00
2023-03-03T12:08:16.346Z,102851.25
2023-03-03T12:10:58.726Z,102852.13
2023-03-03T12:13:36.744Z,102843.94
2023-03-03T12:16:25.145Z,102847.75
2023-03-03T12:18:57.526Z,102842.59
2023-03-03T12:21:45.929Z,102838.91
2023-03-03T12:24:30.018Z,102839.44
2023-03-03T12:27:08.921Z,102834.34
2023-03-03T12:29:46.908Z,102837.44
2023-03-03T12:32:51.316Z,102833.94
2023-03-03T12:35:29.247Z,102826.00
2023-03-03T12:38:27.107Z,102824.63
2023-03-03T12:41:16.367Z,102823.69
2023-03-03T12:43:51.516Z,102830.41
2023-03-03T12:46:41.002Z,102820.66
2023-03-03T12:49:08.935Z,102818.41
2023-03-03T12:51:59.865Z,102808.06
2023-03-03T12:54:39.598Z,102816.94
2023-03-03T12:57:52.087Z,102813.41
2023-03-03T13:00:43.003Z,102815.47
2023-03-03T13:03:20.254Z,102814.53
2023-03-03T13:06:06.428Z,102820.09
2023-03-03T13:08:51.258Z,102818.25
2023-03-03T13:11:47.733Z,102816.34
2023-03-03T13:14:29.788Z,102820.28
2023-03-03T13:17:18.314Z,102814.66
2023-03-03T13:20:01.556Z,102816.09
2023-03-03T13:22:37.977Z,102814.06
2023-03-03T13:25:23.228Z,102807.34
2023-03-03T13:27:56.451Z,102806.81
2023-03-03T13:30:35.481Z,102813.97
2023-03-03T13:33:20.584Z,102808.69
2023-03-03T13:35:58.227Z,102811.00
2023-03-03T13:38:35.175Z,102811.69
2023-03-03T13:41:24.806Z,102805.25
2023-03-03T13:44:04.399Z,102811.41
2023-03-03T13:46:59.538Z,102816.72
2023-03-03T13:49:47.841Z,102810.78
2023-03-03T13:52:23.307Z,102806.16
2023-03-03T13:55:09.191Z,102810.88
2023-03-03T13:57:43.778Z,102808.56
2023-03-03T14:00:25.809Z,102806.94
2023-03-03T14:02:55.526Z,102802.00
2023-03-03T14:05:36.499Z,102801.25
2023-03-03T14:08:12.437Z,102810.34
2023-03-03T14:10:48.995Z,102795.19
2023-03-03T14:13:31.566Z,102799.81
2023-03-03T14:16:16.071Z,102805.50
2023-03-03T14:19:03.019Z,102800.09
2023-03-03T14:21:45.748Z,102803.47
2023-03-03T14:24:18.412Z,102793.66
2023-03-03T14:26:54.626Z,102795.09
2023-03-03T14:29:30.940Z,102783.53
2023-03-03T14:32:01.543Z,102800.75
2023-03-03T14:34:41.219Z,102789.19
2023-03-03T14:37:27.972Z,102782.59
2023-03-03T14:40:17.012Z,102788.38
2023-03-03T14:42:48.905Z,102789.53
2023-03-03T14:45:30.849Z,102785.94
2023-03-03T14:47:59.017Z,102779.69
2023-03-03T14:50:36.110Z,102778.28
2023-03-03T14:53:20.158Z,102780.72
2023-03-03T14:55:49.574Z,102781.50
2023-03-03T14:58:27.139Z,102773.09
2023-03-03T15:01:36.027Z,102770.50
2023-03-03T15:04:10.434Z,102777.53
2023-03-03T15:06:44.158Z,102767.13
2023-03-03T15:09:43.636Z,102770.75
2023-03-03T15:12:22.843Z,102769.31
2023-03-03T15:14:52.332Z,102769.72
2023-03-03T15:17:36.546Z,102770.47
2023-03-03T15:20:27.115Z,102769.09
2023-03-03T15:23:13.991Z,102772.19
2023-03-03T15:25:53.323Z,102764.38
2023-03-03T15:28:29.831Z,102764.34
2023-03-03T15:31:30.173Z,102763.22
2023-03-03T15:34:30.715Z,102753.09
2023-03-03T15:37:12.411Z,102764.25
2023-03-03T15:39:58.201Z,102757.31
2023-03-03T15:42:39.301Z,102756.06
2023-03-03T15:45:46.675Z,102753.28
2023-03-03T15:48:30.743Z,102751.34
2023-03-03T15:51:17.706Z,102749.16
2023-03-03T15:54:15.009Z,102753.84
2023-03-03T15:57:01.089Z,102760.53
2023-03-03T15:59:46.490Z,102757.16
2023-03-03T16:02:15.993Z,102750.81
2023-03-03T16:04:52.268Z,102750.44
2023-03-03T16:07:35.658Z,102752.63
2023-03-03T16:10:29.513Z,102762.44
2023-03-03T16:13:07.964Z,102762.69
2023-03-03T16:15:53.835Z,102762.34
2023-03-03T16:18:20.455Z,102758.34
2023-03-03T16:21:19.466Z,102766.13
2023-03-03T16:23:51.295Z,102761.78
2023-03-03T16:26:44.044Z,102766.38
2023-03-03T16:29:38.150Z,102771.81
2023-03-03T16:32:22.734Z,102766.63
2023-03-03T16:35:14.627Z,102752.91
2023-03-03T16:37:56.012Z,102761.53
2023-03-03T16:40:43.453Z,102749.53
2023-03-03T16:43:27.492Z,102755.75
2023-03-03T16:46:02.628Z,102751.94
2023-03-03T16:48:31.861Z,102756.34
2023-03-03T16:51:19.558Z,102754.78
2023-03-03T16:54:08.059Z,102759.97
2023-03-03T16:56:44.635Z,102757.56
2023-03-03T16:59:52.451Z,102757.97
2023-03-03T17:02:32.369Z,102761.94
2023-03-03T17:05:35.962Z,102757.56
2023-03-03T17:08:24.261Z,102755.59
2023-03-03T17:11:04.295Z,102769.56
2023-03-03T17:13:56.987Z,102756.00
2023-03-03T17:16:42.628Z,102767.38
2023-03-03T17:19:44.071Z,102762.03
2023-03-03T17:22:17.938Z,102766.41
2023-03-03T17:25:03.254Z,102763.59
2023-03-03T17:27:57.482Z,102770.78
2023-03-03T17:30:45.620Z,102770.41
2023-03-03T17:33:28.073Z,102773.22
2023-03-03T17:36:18.516Z,102772.41
2023-03-03T17:38:54.075Z,102780.41
2023-03-03T17:41:44.219Z,102777.81
2023-03-03T17:44:25.932Z,102775.63
2023-03-03T17:46:56.208Z,102781.81
2023-03-03T17:49:40.974Z,102783.22
2023-03-03T17:52:40.217Z,102789.41
2023-03-03T17:55:38.330Z,102782.03
2023-03-03T17:58:26.415Z,102792.19
2023-03-03T18:00:58.977Z,102795.22
2023-03-03T18:03:56.304Z,102793.59
2023-03-03T18:06:41.421Z,102796.00
2023-03-03T18:09:15.047Z,102798.81
2023-03-03T18:11:58.972Z,102793.63
2023-03-03T18:14:42.422Z,102800.00
2023-03-03T18:17:19.608Z,102798.81
2023-03-03T18:20:23.232Z,102814.78
2023-03-03T18:22:51.808Z,102808.19
2023-03-03T18:25:20.830Z,102805.00
2023-03-03T18:28:03.791Z,102812.00
2023-03-03T18:30:57.732Z,102810.00
2023-03-03T18:33:52.266Z,102812.78
2023-03-03T18:36:28.150Z,102813.78
2023-03-03T18:39:00.423Z,102821.56
2023-03-03T18:41:30.303Z,102820.75
2023-03-03T18:44:17.683Z,102816.59
2023-03-03T18:46:50.555Z,102828.72
2023-03-03T18:49:17.957Z,102821.97
2023-03-03T18:51:44.500Z,102824.56
2023-03-03T18:54:39.775Z,102827.53
2023-03-03T18:57:17.800Z,102818.97
2023-03-03T19:00:13.622Z,102823.19
2023-03-03T19:02:51.280Z,102827.53
2023-03-03T19:05:20.011Z,102821.75
2023-03-03T19:07:51.223Z,102827.34
2023-03-03T19:10:20.175Z,102829.94
2023-03-03T19:12:53.840Z,102829.34
2023-03-03T19:15:29.466Z,102826.75
2023-03-03T19:18:19.192Z,102838.91
2023-03-03T19:20:48.339Z,102833.72
2023-03-03T19:23:18.489Z,102832.13
2023-03-03T19:25:45.044Z,102830.53
2023-03-03T19:28:41.798Z,102830.75
2023-03-03T19:34:51.346Z,102821.56
2023-03-03T19:37:51.650Z,102830.94
2023-03-03T19:40:42.436Z,102827.16
2023-03-03T19:43:50.214Z,102815.19
2023-03-03T19:46:58.686Z,102834.31
2023-03-03T19:49:48.808Z,102834.31
2023-03-03T19:52:36.682Z,102831.53
2023-03-03T19:55:30.663Z,102831.34
2023-03-03T19:58:20.943Z,102833.34
2023-03-03T20:00:55.775Z,102834.13
2023-03-03T20:03:31.757Z,102839.13
2023-03-03T20:06:28.360Z,102835.94
2023-03-03T20:09:00.364Z,102837.50
2023-03-03T20:11:59.269Z,102832.94
2023-03-03T20:14:57.820Z,102838.31
2023-03-03T20:17:33.236Z,102842.69
2023-03-03T20:20:27.417Z,102839.13
2023-03-03T20:23:05.829Z,102844.31
2023-03-03T20:25:46.303Z,102849.50
2023-03-03T20:28:46.723Z,102847.69
2023-03-03T20:31:27.659Z,102841.50
2023-03-03T20:34:14.289Z,102843.28
2023-03-03T20:37:05.674Z,102844.91
2023-03-03T20:39:37.796Z,102848.28
2023-03-03T20:42:30.282Z,102849.06
2023-03-03T20:45:12.233Z,102847.50
2023-03-03T20:47:45.194Z,102847.50
2023-03-03T20:50:39.952Z,102843.28
2023-03-03T20:53:46.820Z,102847.28
2023-03-03T20:56:21.013Z,102842.50
2023-03-03T20:59:14.287Z,102841.72
2023-03-03T21:02:02.492Z,102839.13
2023-03-03T21:04:31.750Z,102837.31
2023-03-03T21:06:58.543Z,102840.09
2023-03-03T21:09:30.882Z,102834.31
2023-03-03T21:11:59.081Z,102840.09
2023-03-03T21:14:33.310Z,102837.94
2023-03-03T21:17:02.645Z,102849.88
2023-03-03T21:19:34.272Z,102848.91
2023-03-03T21:22:02.238Z,102847.88
2023-03-03T21:24:55.523Z,102841.13
2023-03-03T21:27:31.092Z,102847.88
2023-03-03T21:30:06.802Z,102850.28
2023-03-03T21:32:44.726Z,102838.31
2023-03-03T21:35:17.393Z,102847.88
2023-03-03T21:37:47.510Z,102842.69
2023-03-03T21:40:29.475Z,102842.69
2023-03-03T21:42:58.941Z,102836.72
2023-03-03T21:45:30.138Z,102837.50
2023-03-03T21:47:59.282Z,102840.53
2023-03-03T21:50:31.231Z,102840.53
2023-03-03T21:53:02.934Z,102840.28
2023-03-03T21:55:29.452Z,102830.34
2023-03-03T21:57:55.873Z,102833.13
2023-03-03T22:00:22.569Z,102839.31
2023-03-03T22:02:49.276Z,102831.56
2023-03-03T22:05:15.849Z,102839.31
2023-03-03T22:07:42.369Z,102840.91
2023-03-03T22:10:10.026Z,102842.50
2023-03-03T22:12:42.048Z,102839.50
2023-03-03T22:15:10.499Z,102837.09
2023-03-03T22:17:37.407Z,102831.13
2023-03-03T22:20:04.050Z,102839.91
2023-03-03T22:22:30.464Z,102837.94
2023-03-03T22:24:56.887Z,102839.69
2023-03-03T22:27:23.518Z,102836.31
2023-03-03T22:29:50.054Z,102829.34
2023-03-03T22:32:21.902Z,102829.56
2023-03-03T22:34:48.420Z,102833.13
2023-03-03T22:37:14.910Z,102836.50
2023-03-03T22:39:41.402Z,102842.50
2023-03-03T22:42:07.765Z,102833.72
2023-03-03T22:44:34.255Z,102830.53
2023-03-03T22:47:00.706Z,102837.34
2023-03-03T22:49:27.255Z,102834.75
2023-03-03T22:51:53.740Z,102832.34
2023-03-03T22:54:20.147Z,102831.56
2023-03-03T22:56:46.868Z,102838.31
2023-03-03T22:59:13.426Z,102833.13
2023-03-03T23:01:40.019Z,102836.72
2023-03-03T23:04:06.767Z,102833.31
2023-03-03T23:06:33.382Z,102833.53
2023-03-03T23:08:59.931Z,102839.31
2023-03-03T23:11:27.631Z,102836.72
2023-03-03T23:13:54.097Z,102845.69
2023-03-03T23:16:21.333Z,102838.72
2023-03-03T23:18:47.771Z,102841.50
2023-03-03T23:21:14.293Z,102841.31
2023-03-03T23:23:40.827Z,102838.72
2023-03-03T23:26:07.430Z,102838.13
2023-03-03T23:28:34.430Z,102838.91
2023-03-03T23:31:00.911Z,102835.53
2023-03-03T23:33:27.498Z,102840.72
2023-03-03T23:35:54.021Z,102834.94
2023-03-03T23:38:20.662Z,102839.09
2023-03-03T23:40:47.474Z,102840.91
2023-03-03T23:43:14.512Z,102840.91
2023-03-03T23:45:40.986Z,102842.72
2023-03-03T23:48:07.700Z,102832.53
2023-03-03T23:50:37.176Z,102837.91
2023-03-03T23:53:05.083Z,102837.91
2023-03-03T23:55:31.515Z,102834.72
2023-03-03T23:57:58.216Z,102839.91
